Thunder radar more information blitzortung!


Löydät sääaseman tiedot myös:

European Weather Network

Finland Weather Exchange

Weather Underground

AWEKAS



Weather Underground säähistoriasivu

Päivittäin yhteenveto Helmikuu 21, 2017 Yksiköt:  Molemmat    Englantilaiset   Metriset
« Edellinen Päivä
Seuraava Päivä »
Päivittäin Viikoittain Kuukausittain Vuosittain Mukautettu
  Korkea: Matala: Keskiarvo:
Lämpötila: TemperatureC °F /  -17.8 °C -10.3 °F /  -23.5 °C -5.6 °F /  -20.9 °C
Kastepiste: DewpointC °F /  -17.8 °C -11.5 °F /  -24.2 °C -7.2 °F /  -21.8 °C
Kosteus: Humidity % 74 % 88 %
Tuulen nopeus: WindSpeedKMH mph /  0 km/h - 0.3 mph /  0.5 km/h
Tuulenpuuska: WindSpeedGustKMH mph /  0 km/h - -
Tuuli:- - SW
Ilmanpaine: PressurehPa in /  0 hPa 986.3 in /  33396.1 hPa -
Sade: 0.0 in /  0 mm    
Historical Graphs
 
 
Taulukkotiedot Helmikuu 21, 2017
Aika Lämpötila Kastepiste Ilmanpaine Tuuli Tuulen nopeus Tuulenpuuska Kosteus Sademäärä (tunneittain)
TemperatureC °F /  -17.8 °C DewpointC °F /  -17.8 °C PressurehPa in /  0 hPa Calm     Humidity % HourlyPrecipMM in /  0 mm
00:00 -3.7 °F /  -19.8 °C -4.6 °F /  -20.3 °C 986.3 in /  33396.1 hPa Calm     93 % 0.0 in /  0 mm
00:15 -3.8 °F /  -19.9 °C -4.8 °F /  -20.4 °C 986.3 in /  33396.1 hPa Calm     93 % 0.0 in /  0 mm
00:30 -4.1 °F /  -20.1 °C -5.1 °F /  -20.6 °C 986.3 in /  33396.1 hPa Calm     93 % 0.0 in /  0 mm
00:45 -4.3 °F /  -20.2 °C -5.2 °F /  -20.7 °C 986.3 in /  33396.1 hPa Calm     94 % 0.0 in /  0 mm
01:00 -4.5 °F /  -20.3 °C -5.3 °F /  -20.7 °C 986.7 in /  33409.7 hPa Calm     94 % 0.0 in /  0 mm
01:15 -4.7 °F /  -20.4 °C -5.5 °F /  -20.8 °C 986.7 in /  33409.7 hPa Calm     94 % 0.0 in /  0 mm
01:30 -4.8 °F /  -20.4 °C -5.7 °F /  -20.9 °C 986.7 in /  33409.7 hPa Calm   4.8 mph /  7.7 km/h 94 % 0.0 in /  0 mm
01:45 -4.9 °F /  -20.5 °C -5.8 °F /  -21 °C 986.3 in /  33396.1 hPa Calm   4.8 mph /  7.7 km/h 94 % 0.0 in /  0 mm
02:00 -5.1 °F /  -20.6 °C -5.7 °F /  -20.9 °C 986.7 in /  33409.7 hPa Calm     95 % 0.0 in /  0 mm
02:15 -5.1 °F /  -20.6 °C -5.8 °F /  -21 °C 986.7 in /  33409.7 hPa Calm     95 % 0.0 in /  0 mm
02:30 -5.1 °F /  -20.6 °C -5.8 °F /  -21 °C 986.7 in /  33409.7 hPa Calm     95 % 0.0 in /  0 mm
02:45 -5.1 °F /  -20.6 °C -5.8 °F /  -21 °C 986.7 in /  33409.7 hPa Calm     95 % 0.0 in /  0 mm
03:00 -5.2 °F /  -20.7 °C -5.9 °F /  -21.1 °C 986.7 in /  33409.7 hPa Calm     95 % 0.0 in /  0 mm
03:15 -5.3 °F /  -20.7 °C -6.0 °F /  -21.1 °C 986.7 in /  33409.7 hPa Calm     95 % 0.0 in /  0 mm
03:30 -5.4 °F /  -20.8 °C -6.1 °F /  -21.2 °C 986.7 in /  33409.7 hPa Calm     95 % 0.0 in /  0 mm
03:45 -5.6 °F /  -20.9 °C -6.3 °F /  -21.3 °C 987.0 in /  33419.8 hPa Calm     95 % 0.0 in /  0 mm
04:00 -5.9 °F /  -21.1 °C -6.8 °F /  -21.6 °C 987.0 in /  33419.8 hPa Calm     94 % 0.0 in /  0 mm
04:15 -6.3 °F /  -21.3 °C -7.1 °F /  -21.7 °C 987.0 in /  33419.8 hPa Calm     94 % 0.0 in /  0 mm
04:30 -6.5 °F /  -21.4 °C -7.3 °F /  -21.8 °C 987.0 in /  33419.8 hPa Calm     94 % 0.0 in /  0 mm
04:45 -6.8 °F /  -21.6 °C -7.7 °F /  -22.1 °C 987.0 in /  33419.8 hPa Calm     93 % 0.0 in /  0 mm
05:00 -7.1 °F /  -21.7 °C -8.0 °F /  -22.2 °C 987.4 in /  33433.4 hPa Calm     93 % 0.0 in /  0 mm
05:15 -7.3 °F /  -21.8 °C -8.2 °F /  -22.3 °C 987.4 in /  33433.4 hPa Calm     93 % 0.0 in /  0 mm
05:30 -7.4 °F /  -21.9 °C -8.3 °F /  -22.4 °C 987.4 in /  33433.4 hPa Calm     93 % 0.0 in /  0 mm
05:45 -7.6 °F /  -22 °C -8.5 °F /  -22.5 °C 987.4 in /  33433.4 hPa Calm     93 % 0.0 in /  0 mm
06:00 -7.7 °F /  -22.1 °C -8.7 °F /  -22.6 °C 987.4 in /  33433.4 hPa Calm     93 % 0.0 in /  0 mm
06:15 -7.8 °F /  -22.1 °C -8.8 °F /  -22.7 °C 987.4 in /  33433.4 hPa Calm     93 % 0.0 in /  0 mm
06:30 -7.9 °F /  -22.2 °C -8.9 °F /  -22.7 °C 987.7 in /  33443.5 hPa Calm     93 % 0.0 in /  0 mm
06:45 -8.2 °F /  -22.3 °C -9.1 °F /  -22.8 °C 987.7 in /  33443.5 hPa Calm     93 % 0.0 in /  0 mm
07:00 -8.2 °F /  -22.3 °C -9.2 °F /  -22.9 °C 987.7 in /  33443.5 hPa Calm     93 % 0.0 in /  0 mm
07:15 -8.0 °F /  -22.2 °C -8.8 °F /  -22.7 °C 987.7 in /  33443.5 hPa Calm     94 % 0.0 in /  0 mm
07:30 -8.0 °F /  -22.2 °C -8.9 °F /  -22.7 °C 988.0 in /  33453.7 hPa Calm     93 % 0.0 in /  0 mm
07:45 -8.0 °F /  -22.2 °C -8.9 °F /  -22.7 °C 988.0 in /  33453.7 hPa Calm     93 % 0.0 in /  0 mm
08:00 -8.2 °F /  -22.3 °C -9.1 °F /  -22.8 °C 988.4 in /  33467.2 hPa Calm     93 % 0.0 in /  0 mm
08:15 -8.2 °F /  -22.3 °C -9.1 °F /  -22.8 °C 988.7 in /  33477.4 hPa Calm     93 % 0.0 in /  0 mm
08:30 -8.1 °F /  -22.3 °C -8.9 °F /  -22.7 °C 989.1 in /  33490.9 hPa Calm     94 % 0.0 in /  0 mm
08:45 -7.6 °F /  -22 °C -8.2 °F /  -22.3 °C 989.1 in /  33490.9 hPa Calm     95 % 0.0 in /  0 mm
09:00 -7.0 °F /  -21.7 °C -7.7 °F /  -22.1 °C 989.4 in /  33501.1 hPa Calm     95 % 0.0 in /  0 mm
09:15 -6.6 °F /  -21.4 °C -7.3 °F /  -21.8 °C 989.4 in /  33501.1 hPa Calm     95 % 0.0 in /  0 mm
09:30 -6.3 °F /  -21.3 °C -6.9 °F /  -21.6 °C 989.7 in /  33511.2 hPa Calm     95 % 0.0 in /  0 mm
09:45 -6.0 °F /  -21.1 °C -6.7 °F /  -21.5 °C 989.7 in /  33511.2 hPa Calm   1.6 mph /  2.6 km/h 95 % 0.0 in /  0 mm
10:00 -5.7 °F /  -20.9 °C -6.3 °F /  -21.3 °C 990.1 in /  33524.8 hPa Calm   1.6 mph /  2.6 km/h 95 % 0.0 in /  0 mm
10:15 -5.4 °F /  -20.8 °C -6.1 °F /  -21.2 °C 990.1 in /  33524.8 hPa Calm   1.6 mph /  2.6 km/h 95 % 0.0 in /  0 mm
10:30 -5.3 °F /  -20.7 °C -6.1 °F /  -21.2 °C 990.4 in /  33534.9 hPa Calm   1.6 mph /  2.6 km/h 94 % 0.0 in /  0 mm
10:45 -5.1 °F /  -20.6 °C -6.1 °F /  -21.2 °C 990.7 in /  33545.1 hPa Calm   4.8 mph /  7.7 km/h 93 % 0.0 in /  0 mm
11:00 -4.9 °F /  -20.5 °C -5.9 °F /  -21.1 °C 990.7 in /  33545.1 hPa Calm   3.2 mph /  5.1 km/h 93 % 0.0 in /  0 mm
11:15 -4.7 °F /  -20.4 °C -5.8 °F /  -21 °C 991.1 in /  33558.6 hPa Calm   4.8 mph /  7.7 km/h 92 % 0.0 in /  0 mm
11:30 -4.3 °F /  -20.2 °C -5.5 °F /  -20.8 °C 991.4 in /  33568.8 hPa Calm   3.2 mph /  5.1 km/h 91 % 0.0 in /  0 mm
11:45 -4.0 °F /  -20 °C -5.5 °F /  -20.8 °C 991.4 in /  33568.8 hPa NNW 1.6 mph /  2.6 km/h 6.4 mph /  10.3 km/h 89 % 0.0 in /  0 mm
12:00 -3.9 °F /  -19.9 °C -5.6 °F /  -20.9 °C 991.4 in /  33568.8 hPa NNW 1.6 mph /  2.6 km/h 8.0 mph /  12.9 km/h 88 % 0.0 in /  0 mm
12:15 -3.5 °F /  -19.7 °C -5.5 °F /  -20.8 °C 991.8 in /  33582.3 hPa NNW 1.6 mph /  2.6 km/h 11.3 mph /  18.2 km/h 86 % 0.0 in /  0 mm
12:30 -3.3 °F /  -19.6 °C -5.4 °F /  -20.8 °C 991.8 in /  33582.3 hPa NW 1.6 mph /  2.6 km/h 9.7 mph /  15.6 km/h 85 % 0.0 in /  0 mm
12:45 -3.2 °F /  -19.6 °C -5.5 °F /  -20.8 °C 991.8 in /  33582.3 hPa Calm   3.2 mph /  5.1 km/h 84 % 0.0 in /  0 mm
13:00 -3.0 °F /  -19.4 °C -5.6 °F /  -20.9 °C 992.1 in /  33592.5 hPa North 1.6 mph /  2.6 km/h 4.8 mph /  7.7 km/h 82 % 0.0 in /  0 mm
13:15 -2.8 °F /  -19.3 °C -5.6 °F /  -20.9 °C 992.4 in /  33602.7 hPa North 1.6 mph /  2.6 km/h 6.4 mph /  10.3 km/h 81 % 0.0 in /  0 mm
13:30 -2.6 °F /  -19.2 °C -5.9 °F /  -21.1 °C 992.4 in /  33602.7 hPa NE 1.6 mph /  2.6 km/h 6.4 mph /  10.3 km/h 78 % 0.0 in /  0 mm
13:45 -2.4 °F /  -19.1 °C -5.9 °F /  -21.1 °C 992.8 in /  33616.2 hPa Calm   4.8 mph /  7.7 km/h 77 % 0.0 in /  0 mm
14:00 -2.3 °F /  -19.1 °C -6.0 °F /  -21.1 °C 992.8 in /  33616.2 hPa NW 3.2 mph /  5.1 km/h 16.1 mph /  25.9 km/h 76 % 0.0 in /  0 mm
14:15 -2.4 °F /  -19.1 °C -6.1 °F /  -21.2 °C 992.8 in /  33616.2 hPa North 1.6 mph /  2.6 km/h 8.0 mph /  12.9 km/h 76 % 0.0 in /  0 mm
14:30 -2.4 °F /  -19.1 °C -6.2 °F /  -21.2 °C 993.1 in /  33626.4 hPa NNW 1.6 mph /  2.6 km/h 8.0 mph /  12.9 km/h 75 % 0.0 in /  0 mm
14:45 -2.4 °F /  -19.1 °C -6.3 °F /  -21.3 °C 993.1 in /  33626.4 hPa NNW 1.6 mph /  2.6 km/h 9.7 mph /  15.6 km/h 75 % 0.0 in /  0 mm
15:00 -2.4 °F /  -19.1 °C -6.4 °F /  -21.3 °C 993.5 in /  33639.9 hPa North 1.6 mph /  2.6 km/h 8.0 mph /  12.9 km/h 74 % 0.0 in /  0 mm
15:15 -2.4 °F /  -19.1 °C -6.4 °F /  -21.3 °C 993.5 in /  33639.9 hPa NW 1.6 mph /  2.6 km/h 6.4 mph /  10.3 km/h 74 % 0.0 in /  0 mm
15:30 -2.5 °F /  -19.2 °C -6.3 °F /  -21.3 °C 993.8 in /  33650.1 hPa NW 3.2 mph /  5.1 km/h 12.9 mph /  20.8 km/h 75 % 0.0 in /  0 mm
15:45 -2.7 °F /  -19.3 °C -6.0 °F /  -21.1 °C 993.8 in /  33650.1 hPa Calm   4.8 mph /  7.7 km/h 78 % 0.0 in /  0 mm
16:00 -2.3 °F /  -19.1 °C -5.6 °F /  -20.9 °C 993.8 in /  33650.1 hPa Calm   4.8 mph /  7.7 km/h 78 % 0.0 in /  0 mm
16:15 -2.8 °F /  -19.3 °C -6.3 °F /  -21.3 °C 994.1 in /  33660.2 hPa NNW 1.6 mph /  2.6 km/h 4.8 mph /  7.7 km/h 77 % 0.0 in /  0 mm
16:30 -3.2 °F /  -19.6 °C -6.5 °F /  -21.4 °C 994.1 in /  33660.2 hPa Calm   3.2 mph /  5.1 km/h 78 % 0.0 in /  0 mm
16:45 -3.5 °F /  -19.7 °C -6.5 °F /  -21.4 °C 994.5 in /  33673.8 hPa Calm   3.2 mph /  5.1 km/h 80 % 0.0 in /  0 mm
17:00 -3.7 °F /  -19.8 °C -6.5 °F /  -21.4 °C 994.5 in /  33673.8 hPa Calm     81 % 0.0 in /  0 mm
17:15 -3.9 °F /  -19.9 °C -6.6 °F /  -21.4 °C 994.8 in /  33683.9 hPa Calm     82 % 0.0 in /  0 mm
17:30 -4.1 °F /  -20.1 °C -6.6 °F /  -21.4 °C 995.1 in /  33694.1 hPa Calm   1.6 mph /  2.6 km/h 83 % 0.0 in /  0 mm
17:45 -4.2 °F /  -20.1 °C -6.7 °F /  -21.5 °C 995.1 in /  33694.1 hPa Calm     83 % 0.0 in /  0 mm
18:00 -4.3 °F /  -20.2 °C -6.7 °F /  -21.5 °C 995.1 in /  33694.1 hPa Calm     83 % 0.0 in /  0 mm
18:15 -4.4 °F /  -20.2 °C -6.7 °F /  -21.5 °C 995.1 in /  33694.1 hPa Calm   1.6 mph /  2.6 km/h 84 % 0.0 in /  0 mm
18:30 -4.7 °F /  -20.4 °C -7.0 °F /  -21.7 °C 995.5 in /  33707.6 hPa Calm     84 % 0.0 in /  0 mm
18:45 -4.9 °F /  -20.5 °C -7.1 °F /  -21.7 °C 995.5 in /  33707.6 hPa Calm     85 % 0.0 in /  0 mm
19:00 -5.3 °F /  -20.7 °C -7.5 °F /  -21.9 °C 995.5 in /  33707.6 hPa Calm     85 % 0.0 in /  0 mm
19:15 -5.9 °F /  -21.1 °C -7.9 °F /  -22.2 °C 995.8 in /  33717.8 hPa Calm     86 % 0.0 in /  0 mm
19:30 -6.3 °F /  -21.3 °C -8.0 °F /  -22.2 °C 995.8 in /  33717.8 hPa Calm     88 % 0.0 in /  0 mm
19:45 -6.9 °F /  -21.6 °C -8.4 °F /  -22.4 °C 995.8 in /  33717.8 hPa Calm     89 % 0.0 in /  0 mm
20:00 -7.1 °F /  -21.7 °C -8.4 °F /  -22.4 °C 996.2 in /  33731.3 hPa Calm     90 % 0.0 in /  0 mm
20:15 -7.2 °F /  -21.8 °C -8.5 °F /  -22.5 °C 995.8 in /  33717.8 hPa Calm     90 % 0.0 in /  0 mm
20:30 -7.4 °F /  -21.9 °C -8.7 °F /  -22.6 °C 996.2 in /  33731.3 hPa Calm   1.6 mph /  2.6 km/h 90 % 0.0 in /  0 mm
20:45 -7.7 °F /  -22.1 °C -8.9 °F /  -22.7 °C 996.2 in /  33731.3 hPa Calm     91 % 0.0 in /  0 mm
21:00 -7.9 °F /  -22.2 °C -9.1 °F /  -22.8 °C 996.5 in /  33741.5 hPa Calm     91 % 0.0 in /  0 mm
21:15 -8.1 °F /  -22.3 °C -9.3 °F /  -22.9 °C 996.5 in /  33741.5 hPa Calm     91 % 0.0 in /  0 mm
21:30 -8.3 °F /  -22.4 °C -9.5 °F /  -23.1 °C 996.2 in /  33731.3 hPa Calm     91 % 0.0 in /  0 mm
21:45 -8.7 °F /  -22.6 °C -9.9 °F /  -23.3 °C 996.2 in /  33731.3 hPa Calm     91 % 0.0 in /  0 mm
22:00 -8.9 °F /  -22.7 °C -10.1 °F /  -23.4 °C 996.2 in /  33731.3 hPa Calm     91 % 0.0 in /  0 mm
22:15 -9.2 °F /  -22.9 °C -10.4 °F /  -23.6 °C 996.2 in /  33731.3 hPa Calm     91 % 0.0 in /  0 mm
22:30 -9.4 °F /  -23 °C -10.6 °F /  -23.7 °C 996.5 in /  33741.5 hPa Calm     91 % 0.0 in /  0 mm
22:45 -9.6 °F /  -23.1 °C -10.6 °F /  -23.7 °C 996.5 in /  33741.5 hPa Calm     92 % 0.0 in /  0 mm
23:00 -9.7 °F /  -23.2 °C -10.7 °F /  -23.7 °C 996.5 in /  33741.5 hPa Calm     92 % 0.0 in /  0 mm
23:15 -9.8 °F /  -23.2 °C -10.9 °F /  -23.8 °C 996.2 in /  33731.3 hPa Calm     92 % 0.0 in /  0 mm
23:30 -10.1 °F /  -23.4 °C -11.2 °F /  -24 °C 996.2 in /  33731.3 hPa Calm     91 % 0.0 in /  0 mm
23:45 -10.3 °F /  -23.5 °C -11.5 °F /  -24.2 °C 996.5 in /  33741.5 hPa Calm     91 % 0.0 in /  0 mm
Esan sääasema
Terveisin Weather Underground - 2.75 mb

Alkuperäinen skripti  Jim McMurry - jmcmurry@mwt.net Sovitettu myös templatelle  Wim van der Kuil - Leuven-Template.eu

Laitteet joita käytämme:

Sääasema
Davis VP2

Sääasemaohjelma
Cumulus

Sääaseman tietokone
Asus EeePC

Palveluntarjoaja
Suncomet

Davis VP2

Cumulus

Asus EeePC

Suncomet